Time;durP1;ratioP1;P1;durP2;ratioP2;P2;SDS_P1;SDS_P2;PMS_P1;PMS_P2;Temp;Humidity;BMP_temperature;BMP_pressure;BME280_temperature;BME280_humidity;BME280_pressure;Samples;Min_cycle;Max_cycle;Signal;HPM_P1;HPM_P2
2024/03/21 00:00:50;;;;;;;;;;;7.60;49.90;;;;;;5069609;28;19947;-75
2024/03/21 00:03:16;;;;;;;;;;;7.50;50.60;;;;;;5071137;28;19962;-76
2024/03/21 00:05:41;;;;;;;;;;;7.40;51.00;;;;;;5070931;28;20011;-76
2024/03/21 00:08:08;;;;;;;;;;;7.40;51.70;;;;;;5071631;28;19942;-75
2024/03/21 00:10:34;;;;;;;;;;;7.40;51.70;;;;;;5073930;28;19930;-76
2024/03/21 00:13:00;;;;;;;;;;;7.30;51.50;;;;;;5075010;28;19924;-75
2024/03/21 00:15:26;;;;;;;;;;;7.20;51.40;;;;;;5073821;28;20415;-69
2024/03/21 00:17:52;;;;;;;;;;;7.20;50.50;;;;;;5074108;28;19924;-76
2024/03/21 00:20:19;;;;;;;;;;;7.10;50.70;;;;;;5072942;28;19916;-76
2024/03/21 00:22:46;;;;;;;;;;;7.10;50.60;;;;;;5075350;28;19963;-75
2024/03/21 00:27:58;;;;;;;;;;;7.10;49.40;;;;;;5074103;28;19927;-69
2024/03/21 00:30:24;;;;;;;;;;;7.10;50.00;;;;;;5074488;28;20365;-70
2024/03/21 00:32:49;;;;;;;;;;;7.00;50.30;;;;;;5073756;28;20335;-74
2024/03/21 00:35:15;;;;;;;;;;;7.00;51.00;;;;;;5073458;28;19922;-69
2024/03/21 00:37:41;;;;;;;;;;;7.00;51.10;;;;;;5073716;28;20022;-72
2024/03/21 00:40:09;;;;;;;;;;;7.00;51.20;;;;;;5074160;28;20146;-69
2024/03/21 00:42:39;;;;;;;;;;;6.90;51.80;;;;;;5074750;28;19927;-76
2024/03/21 00:45:06;;;;;;;;;;;6.80;51.90;;;;;;5074649;28;20015;-70
2024/03/21 00:47:32;;;;;;;;;;;6.80;51.50;;;;;;5072879;28;19959;-76
2024/03/21 00:49:58;;;;;;;;;;;6.80;52.30;;;;;;5074330;28;19920;-76
2024/03/21 00:52:24;;;;;;;;;;;6.80;53.50;;;;;;5072208;28;20389;-74
2024/03/21 00:54:50;;;;;;;;;;;6.70;52.90;;;;;;5074185;28;20018;-69
2024/03/21 00:57:16;;;;;;;;;;;6.70;52.90;;;;;;5073273;28;19927;-70
2024/03/21 00:59:46;;;;;;;;;;;6.60;53.30;;;;;;5072796;28;20392;-75
2024/03/21 01:02:13;;;;;;;;;;;6.60;53.30;;;;;;5056351;28;19924;-76
2024/03/21 01:04:39;;;;;;;;;;;6.60;53.60;;;;;;5072761;28;19920;-70
2024/03/21 01:07:05;;;;;;;;;;;6.50;53.30;;;;;;5073679;28;20433;-75
2024/03/21 01:09:32;;;;;;;;;;;6.40;52.90;;;;;;5073958;28;20357;-70
2024/03/21 01:11:58;;;;;;;;;;;6.40;53.40;;;;;;5072339;28;19956;-76
2024/03/21 01:14:25;;;;;;;;;;;6.40;53.40;;;;;;5072780;28;20332;-76
2024/03/21 01:16:51;;;;;;;;;;;6.30;53.50;;;;;;5072981;28;19917;-76
2024/03/21 01:19:17;;;;;;;;;;;6.20;53.60;;;;;;5072340;28;20022;-75
2024/03/21 01:21:43;;;;;;;;;;;6.20;54.00;;;;;;5072244;28;19963;-76
2024/03/21 01:24:08;;;;;;;;;;;6.10;54.00;;;;;;5072658;28;19960;-76
2024/03/21 01:26:34;;;;;;;;;;;6.10;54.20;;;;;;5055464;28;20384;-70
2024/03/21 01:29:00;;;;;;;;;;;6.00;54.50;;;;;;5072328;28;20378;-70
2024/03/21 01:31:26;;;;;;;;;;;5.90;54.80;;;;;;5073431;28;20441;-69
2024/03/21 01:33:52;;;;;;;;;;;5.90;54.90;;;;;;5055778;28;19999;-69
2024/03/21 01:36:18;;;;;;;;;;;5.80;54.70;;;;;;5074224;28;19928;-76
2024/03/21 01:38:44;;;;;;;;;;;5.80;55.30;;;;;;5073776;28;20391;-70
2024/03/21 01:41:10;;;;;;;;;;;5.80;55.20;;;;;;5071761;28;20007;-75
2024/03/21 01:43:39;;;;;;;;;;;5.70;55.50;;;;;;5055481;28;20274;-70
2024/03/21 01:46:23;;;;;;;;;;;5.70;55.50;;;;;;5072099;28;19920;-76
2024/03/21 01:48:50;;;;;;;;;;;5.70;55.30;;;;;;5055069;28;19950;-75
2024/03/21 01:51:20;;;;;;;;;;;5.60;55.60;;;;;;5071127;28;19955;-69
2024/03/21 01:56:33;;;;;;;;;;;5.60;55.70;;;;;;5072895;28;19986;-70
2024/03/21 01:58:59;;;;;;;;;;;5.50;55.10;;;;;;5071478;28;19923;-70
2024/03/21 02:01:27;;;;;;;;;;;5.50;54.50;;;;;;5072055;28;20022;-70
2024/03/21 02:03:55;;;;;;;;;;;5.50;54.80;;;;;;5073378;28;19974;-70
2024/03/21 02:06:22;;;;;;;;;;;5.50;54.70;;;;;;5071679;28;19924;-70
2024/03/21 02:08:50;;;;;;;;;;;5.40;54.90;;;;;;5073163;28;19932;-75
2024/03/21 02:11:16;;;;;;;;;;;5.40;54.40;;;;;;5072739;28;20274;-70
2024/03/21 02:13:43;;;;;;;;;;;5.40;55.00;;;;;;5071670;28;20011;-70
2024/03/21 02:16:09;;;;;;;;;;;5.30;55.20;;;;;;5072023;28;19925;-76
2024/03/21 02:18:35;;;;;;;;;;;5.30;55.00;;;;;;5071819;28;20035;-76
2024/03/21 02:21:04;;;;;;;;;;;5.30;55.40;;;;;;5072356;28;19928;-69
2024/03/21 02:23:30;;;;;;;;;;;5.20;55.10;;;;;;5071420;28;19955;-76
2024/03/21 02:25:57;;;;;;;;;;;5.10;55.10;;;;;;5071281;28;20031;-76
2024/03/21 02:28:24;;;;;;;;;;;5.10;55.90;;;;;;5054724;28;19927;-75
2024/03/21 02:30:52;;;;;;;;;;;5.00;55.40;;;;;;5071266;28;19925;-76
2024/03/21 02:33:19;;;;;;;;;;;5.00;55.90;;;;;;5071344;28;20406;-70
2024/03/21 02:35:45;;;;;;;;;;;4.90;56.00;;;;;;5072627;28;20132;-75
2024/03/21 02:38:11;;;;;;;;;;;4.90;55.70;;;;;;5071156;28;20430;-74
2024/03/21 02:40:37;;;;;;;;;;;5.00;55.90;;;;;;5070476;28;20011;-70
2024/03/21 02:43:03;;;;;;;;;;;4.90;55.90;;;;;;5072209;28;19920;-70
2024/03/21 02:45:29;;;;;;;;;;;4.90;55.70;;;;;;5070606;28;19928;-76
2024/03/21 02:59:15;;;;;;;4.38;2.47;;;5.90;53.20;;;;;;5109406;27;20630;-70
2024/03/21 03:01:41;;;;;;;3.30;1.77;;;5.70;52.00;;;;;;5095000;27;20048;-69
2024/03/21 03:04:10;;;;;;;4.20;1.88;;;5.60;52.80;;;;;;5087690;28;20086;-76
2024/03/21 03:06:36;;;;;;;2.53;1.70;;;5.50;53.30;;;;;;5088982;28;20074;-75
2024/03/21 03:09:02;;;;;;;3.35;1.90;;;5.30;53.10;;;;;;5087703;28;20040;-76
2024/03/21 03:11:28;;;;;;;3.80;1.60;;;5.20;54.00;;;;;;5088318;28;20036;-69
2024/03/21 03:13:56;;;;;;;1.55;1.13;;;5.10;54.50;;;;;;5086656;28;20085;-69
2024/03/21 03:16:22;;;;;;;5.43;1.63;;;5.00;54.30;;;;;;5087865;28;20032;-70
2024/03/21 03:18:49;;;;;;;3.92;1.85;;;4.90;54.70;;;;;;5086790;28;20062;-76
2024/03/21 03:21:15;;;;;;;1.13;0.82;;;4.80;55.40;;;;;;5069594;28;20109;-76
2024/03/21 03:23:41;;;;;;;3.75;2.22;;;4.70;55.60;;;;;;5088158;28;20036;-76
2024/03/21 03:26:07;;;;;;;1.52;1.08;;;4.70;55.70;;;;;;5088664;28;20054;-74
2024/03/21 03:28:33;;;;;;;1.05;0.90;;;4.60;55.90;;;;;;5088554;28;20063;-76
2024/03/21 03:30:59;;;;;;;1.60;0.82;;;4.60;56.50;;;;;;5086186;28;20036;-76
2024/03/21 03:36:10;;;;;;;3.58;1.60;;;4.50;56.30;;;;;;5088019;28;20098;-76
2024/03/21 03:38:36;;;;;;;1.77;1.38;;;4.50;56.70;;;;;;5088088;28;20040;-70
2024/03/21 03:41:02;;;;;;;2.53;1.63;;;4.50;57.10;;;;;;5087185;28;20036;-75
2024/03/21 03:43:28;;;;;;;4.65;1.80;;;4.40;57.10;;;;;;5088047;28;20052;-76
2024/03/21 03:45:54;;;;;;;6.88;1.77;;;4.40;57.30;;;;;;5086357;28;20043;-74
2024/03/21 03:48:20;;;;;;;5.50;1.92;;;4.40;56.90;;;;;;5086281;28;20036;-76
2024/03/21 03:50:46;;;;;;;1.70;1.35;;;4.40;56.90;;;;;;5086503;28;20040;-70
2024/03/21 03:53:12;;;;;;;1.92;1.17;;;4.30;57.30;;;;;;5088470;28;20481;-69
2024/03/21 03:55:38;;;;;;;2.83;1.80;;;4.30;57.40;;;;;;5086265;28;20076;-70
2024/03/21 03:58:04;;;;;;;2.83;1.33;;;4.30;57.30;;;;;;5085603;28;20056;-70
2024/03/21 04:00:30;;;;;;;1.20;0.77;;;4.20;57.60;;;;;;5071783;28;20037;-76
2024/03/21 04:02:56;;;;;;;3.55;1.30;;;4.20;57.70;;;;;;5072664;28;20056;-76
2024/03/21 04:05:24;;;;;;;3.58;2.15;;;4.20;57.90;;;;;;5073722;28;20516;-76
2024/03/21 04:07:50;;;;;;;3.47;1.73;;;4.10;57.90;;;;;;5072597;28;20092;-76
2024/03/21 04:10:17;;;;;;;2.85;1.50;;;4.10;58.00;;;;;;5071866;28;20055;-69
2024/03/21 04:12:43;;;;;;;;;;;4.00;57.60;;;;;;5072952;28;20040;-76
2024/03/21 04:15:09;;;;;;;1.65;1.05;;;4.00;57.80;;;;;;5073478;28;19916;-69
2024/03/21 04:17:36;;;;;;;2.97;1.55;;;4.00;57.70;;;;;;5055874;28;20515;-73
2024/03/21 04:22:49;;;;;;;2.05;1.08;;;4.00;57.50;;;;;;5072093;28;20053;-76
2024/03/21 04:25:15;;;;;;;4.78;1.85;;;4.00;57.40;;;;;;5072399;28;20031;-76
2024/03/21 04:27:41;;;;;;;3.13;1.58;;;4.10;57.80;;;;;;5072168;28;20123;-76
2024/03/21 04:30:08;;;;;;;3.58;1.50;;;4.00;57.70;;;;;;5071969;28;20027;-76
2024/03/21 04:32:34;;;;;;;3.50;1.85;;;4.00;57.00;;;;;;5073749;28;20043;-75
2024/03/21 04:35:00;;;;;;;2.72;1.60;;;4.00;57.50;;;;;;5071960;28;20257;-75
2024/03/21 04:37:26;;;;;;;1.75;1.13;;;4.00;57.60;;;;;;5073088;28;20044;-75
2024/03/21 04:39:52;;;;;;;2.58;1.45;;;4.00;57.60;;;;;;5073182;28;20033;-76
2024/03/21 04:42:19;;;;;;;1.13;0.88;;;3.90;57.80;;;;;;5072615;28;20033;-76
2024/03/21 04:44:45;;;;;;;3.78;2.60;;;4.00;57.80;;;;;;5072873;28;20470;-70
2024/03/21 04:47:11;;;;;;;;;;;4.00;56.80;;;;;;5073513;28;20039;-75
2024/03/21 04:49:38;;;;;;;4.05;2.33;;;4.00;57.30;;;;;;5054913;28;19934;-76
2024/03/21 04:52:04;;;;;;;1.60;0.80;;;4.00;57.40;;;;;;5071053;28;20036;-76
2024/03/21 04:54:30;;;;;;;1.85;1.00;;;4.00;56.80;;;;;;5071467;28;20041;-76
2024/03/21 04:56:57;;;;;;;2.03;1.80;;;4.00;57.70;;;;;;5054431;28;20029;-76
2024/03/21 04:59:25;;;;;;;;;;;3.90;58.20;;;;;;5073526;28;20031;-70
2024/03/21 05:01:52;;;;;;;2.80;1.80;;;3.90;58.10;;;;;;5072146;28;19999;-70
2024/03/21 05:04:18;;;;;;;3.75;1.70;;;3.80;58.20;;;;;;5072536;28;20058;-76
2024/03/21 05:06:44;;;;;;;3.60;2.60;;;3.90;58.30;;;;;;5054518;28;20393;-70
2024/03/21 05:09:11;;;;;;;4.68;2.20;;;3.90;58.40;;;;;;5054393;28;20233;-70
2024/03/21 05:11:37;;;;;;;3.30;1.83;;;3.90;58.40;;;;;;5052831;28;20082;-76
2024/03/21 05:14:03;;;;;;;4.18;2.33;;;3.90;58.30;;;;;;5070915;28;20246;-76
2024/03/21 05:16:30;;;;;;;1.88;1.15;;;3.90;58.30;;;;;;5071049;28;20029;-69
2024/03/21 05:18:56;;;;;;;4.88;2.45;;;4.00;58.10;;;;;;5070986;28;20031;-76
2024/03/21 05:21:22;;;;;;;2.67;1.30;;;4.00;58.40;;;;;;5070369;28;20040;-76
2024/03/21 05:23:48;;;;;;;3.88;2.25;;;4.00;58.20;;;;;;5071247;28;20032;-76
2024/03/21 05:26:15;;;;;;;2.75;1.02;;;4.10;58.30;;;;;;5071083;28;20029;-76
2024/03/21 05:28:41;;;;;;;;;;;4.10;58.30;;;;;;5071314;28;20036;-76
2024/03/21 05:31:26;;;;;;;6.75;1.98;;;4.00;58.40;;;;;;5070159;28;19923;-76
2024/03/21 05:33:54;;;;;;;2.05;0.93;;;4.10;58.50;;;;;;5053889;28;20497;-76
2024/03/21 05:36:21;;;;;;;4.45;2.90;;;4.10;58.30;;;;;;5070527;28;20024;-70
2024/03/21 05:38:47;;;;;;;3.00;1.70;;;4.20;57.70;;;;;;5071853;28;20481;-69
2024/03/21 05:41:14;;;;;;;7.22;2.55;;;4.30;58.20;;;;;;5071539;28;20029;-76
2024/03/21 05:43:41;;;;;;;;;;;4.40;58.10;;;;;;5054417;28;20024;-70
2024/03/21 05:46:07;;;;;;;2.00;1.13;;;4.50;57.90;;;;;;5070502;28;19966;-70
2024/03/21 05:48:33;;;;;;;3.17;1.58;;;4.60;57.40;;;;;;5072023;28;20424;-76
2024/03/21 05:51:00;;;;;;;5.55;2.95;;;4.60;57.20;;;;;;5071145;28;20058;-70
2024/03/21 05:53:27;;;;;;;4.80;2.22;;;4.70;57.80;;;;;;5071986;28;20029;-69
2024/03/21 05:56:14;;;;;;;3.92;2.15;;;4.80;57.70;;;;;;5070169;28;20035;-70
2024/03/21 05:58:41;;;;;;;4.17;2.20;;;4.80;57.60;;;;;;5070301;28;20523;-76
2024/03/21 06:03:52;;;;;;;2.60;1.88;;;4.90;58.40;;;;;;5070108;28;20028;-76
2024/03/21 06:06:18;;;;;;;3.47;2.00;;;4.90;58.40;;;;;;5069938;28;20033;-76
2024/03/21 06:08:44;;;;;;;3.88;1.85;;;4.90;58.00;;;;;;5069964;28;20031;-76
2024/03/21 06:11:11;;;;;;;5.88;2.65;;;5.00;58.20;;;;;;5071084;28;20115;-75
2024/03/21 06:13:36;;;;;;;;;;;5.10;58.50;;;;;;5053681;28;20087;-69
2024/03/21 06:16:03;;;;;;;5.90;3.58;;;5.20;58.20;;;;;;5070036;28;19916;-75
2024/03/21 06:18:29;;;;;;;6.35;4.60;;;5.20;57.60;;;;;;5069917;28;20083;-70
2024/03/21 06:20:55;;;;;;;7.55;2.90;;;5.30;58.30;;;;;;5069228;28;20124;-70
2024/03/21 06:23:21;;;;;;;4.18;3.20;;;5.50;58.30;;;;;;5069878;28;20397;-76
2024/03/21 06:25:47;;;;;;;4.70;3.47;;;5.50;58.20;;;;;;5069721;28;20048;-70
2024/03/21 06:28:13;;;;;;;3.47;2.40;;;5.60;58.80;;;;;;5069998;28;20036;-69
2024/03/21 06:30:40;;;;;;;2.92;2.30;;;5.60;58.50;;;;;;5069356;28;20040;-76
2024/03/21 06:33:06;;;;;;;9.82;3.17;;;5.60;58.70;;;;;;5071475;28;20041;-75
2024/03/21 06:35:32;;;;;;;6.10;3.30;;;5.70;58.60;;;;;;5070899;28;20036;-75
2024/03/21 06:37:58;;;;;;;4.22;2.45;;;5.80;58.90;;;;;;5071345;28;20040;-70
2024/03/21 06:40:25;;;;;;;5.55;2.70;;;5.90;58.20;;;;;;5069279;28;20032;-76
2024/03/21 06:43:11;;;;;;;15.15;5.80;;;6.00;58.30;;;;;;5069674;28;20037;-69
2024/03/21 06:45:38;;;;;;;8.90;4.93;;;6.10;58.90;;;;;;5069568;28;20060;-75
2024/03/21 06:48:04;;;;;;;;;;;6.30;58.40;;;;;;5071278;28;20044;-70
2024/03/21 06:50:30;;;;;;;5.90;4.50;;;6.30;58.30;;;;;;5070370;28;19916;-69
2024/03/21 06:52:57;;;;;;;5.85;3.88;;;6.40;58.50;;;;;;5069609;28;20040;-73
2024/03/21 06:55:23;;;;;;;15.18;3.30;;;6.50;58.20;;;;;;5069279;28;20036;-76
2024/03/21 06:57:56;;;;;;;;;;;6.60;56.90;;;;;;5071391;28;20049;-75
2024/03/21 07:00:23;;;;;;;6.50;2.55;;;6.70;57.60;;;;;;5069113;28;19920;-69
2024/03/21 07:02:50;;;;;;;7.45;2.97;;;6.80;56.80;;;;;;5069731;28;20037;-76
2024/03/21 07:05:16;;;;;;;4.55;2.10;;;6.90;57.00;;;;;;5069452;28;20033;-70
2024/03/21 07:07:42;;;;;;;3.38;2.15;;;7.10;57.30;;;;;;5069580;28;20131;-75
2024/03/21 07:10:09;;;;;;;3.17;2.25;;;7.10;57.10;;;;;;5068807;28;20100;-75
2024/03/21 07:15:20;;;;;;;2.88;1.63;;;7.40;56.60;;;;;;5070607;28;20043;-70
2024/03/21 07:17:46;;;;;;;4.13;2.47;;;7.60;56.20;;;;;;5052732;28;20059;-72
2024/03/21 07:20:12;;;;;;;4.68;2.35;;;7.70;55.70;;;;;;5068625;28;20048;-76
2024/03/21 07:22:39;;;;;;;4.45;2.28;;;7.90;55.30;;;;;;5069495;28;20090;-76
2024/03/21 07:25:07;;;;;;;2.40;1.52;;;8.00;54.30;;;;;;5070377;28;20420;-70
2024/03/21 07:27:33;;;;;;;8.07;1.98;;;8.20;54.40;;;;;;5069278;28;20043;-76
2024/03/21 07:29:59;;;;;;;3.72;1.65;;;8.30;53.70;;;;;;5069250;28;20028;-70
2024/03/21 07:32:25;;;;;;;4.00;2.13;;;8.50;54.10;;;;;;5068771;28;20040;-70
2024/03/21 07:34:51;;;;;;;1.85;0.70;;;8.60;54.00;;;;;;5072946;28;20263;-69
2024/03/21 07:37:17;;;;;;;1.73;0.93;;;8.80;52.70;;;;;;5056378;28;20489;-70
2024/03/21 07:39:44;;;;;;;2.80;1.38;;;8.90;52.30;;;;;;5074271;28;20036;-76
2024/03/21 07:42:10;;;;;;;0.90;0.52;;;9.10;51.70;;;;;;5072597;28;20043;-77
2024/03/21 07:44:36;;;;;;;1.88;1.38;;;9.30;51.50;;;;;;5073889;28;20033;-70
2024/03/21 07:47:02;;;;;;;2.53;0.80;;;9.60;50.80;;;;;;5074179;28;20094;-76
2024/03/21 07:49:28;;;;;;;1.70;1.50;;;9.90;51.20;;;;;;5072825;28;20029;-76
2024/03/21 07:52:00;;;;;;;1.92;1.23;;;10.40;51.30;;;;;;5073588;28;20051;-76
2024/03/21 07:54:29;;;;;;;1.50;0.85;;;11.00;50.50;;;;;;5073839;28;20436;-76
2024/03/21 07:57:14;;;;;;;4.60;2.55;;;11.70;49.60;;;;;;5072180;28;20025;-70
2024/03/21 07:59:40;;;;;;;1.80;1.13;;;12.40;48.00;;;;;;5072623;28;20029;-76
2024/03/21 08:02:07;;;;;;;3.10;1.38;;;13.10;44.80;;;;;;5073433;28;20575;-70
2024/03/21 08:04:33;;;;;;;;;;;13.80;43.30;;;;;;5074257;28;20036;-70
2024/03/21 08:06:59;;;;;;;2.53;1.60;;;14.60;42.30;;;;;;5072417;28;19920;-69
2024/03/21 08:09:26;;;;;;;1.50;1.15;;;15.30;40.90;;;;;;5072689;28;20124;-76
2024/03/21 08:11:52;;;;;;;3.35;1.27;;;15.90;38.90;;;;;;5055055;28;20047;-75
2024/03/21 08:14:19;;;;;;;1.80;1.13;;;16.50;36.50;;;;;;5073418;28;20473;-75
2024/03/21 08:16:45;;;;;;;1.85;1.13;;;17.10;36.60;;;;;;5073799;28;20045;-70
2024/03/21 08:19:11;;;;;;;1.33;0.63;;;17.80;35.20;;;;;;5072202;28;20028;-70
2024/03/21 08:21:37;;;;;;;1.95;1.65;;;18.60;33.90;;;;;;5071586;28;20047;-76
2024/03/21 08:24:03;;;;;;;1.70;0.80;;;19.40;31.60;;;;;;5072070;28;20048;-75
2024/03/21 08:26:29;;;;;;;;;;;19.80;30.10;;;;;;5073729;28;20041;-76
2024/03/21 08:28:55;;;;;;;1.83;1.13;;;20.50;29.30;;;;;;5073111;28;19958;-75
2024/03/21 08:31:21;;;;;;;0.85;0.63;;;21.00;27.70;;;;;;5054848;28;20029;-77
2024/03/21 08:33:48;;;;;;;3.58;1.60;;;21.50;27.40;;;;;;5072188;28;20398;-70
2024/03/21 08:36:14;;;;;;;;;;;21.90;27.10;;;;;;5073860;28;20521;-70
2024/03/21 08:38:40;;;;;;;6.50;2.73;;;22.10;27.20;;;;;;5071961;28;20003;-70
2024/03/21 08:41:07;;;;;;;1.92;1.30;;;22.70;25.90;;;;;;5071349;28;20142;-70
2024/03/21 08:43:33;;;;;;;4.68;2.13;;;23.20;24.20;;;;;;5073199;28;20035;-70
2024/03/21 08:45:59;;;;;;;2.38;1.60;;;23.70;23.40;;;;;;5072926;28;20036;-70
2024/03/21 08:48:25;;;;;;;1.85;1.05;;;24.30;23.60;;;;;;5073205;28;20040;-75
2024/03/21 08:50:51;;;;;;;;;;;24.80;22.60;;;;;;5071703;28;20406;-75
2024/03/21 08:53:18;;;;;;;1.08;0.80;;;25.00;21.70;;;;;;5073283;28;19920;-76
2024/03/21 08:55:44;;;;;;;2.03;0.85;;;25.30;21.50;;;;;;5072891;28;20240;-76
2024/03/21 08:58:10;;;;;;;1.33;0.88;;;25.80;21.10;;;;;;5072792;28;20131;-70
2024/03/21 09:00:40;;;;;;;2.10;1.30;;;26.60;20.30;;;;;;5072125;28;20033;-70
2024/03/21 09:03:08;;;;;;;2.17;1.52;;;27.40;19.70;;;;;;5071477;28;20094;-76
2024/03/21 09:05:34;;;;;;;1.58;1.17;;;28.00;19.00;;;;;;5072619;28;20028;-70
2024/03/21 09:08:00;;;;;;;1.88;1.33;;;28.50;17.80;;;;;;5071266;28;20128;-71
2024/03/21 09:10:28;;;;;;;4.13;1.90;;;29.00;18.00;;;;;;5070762;28;20045;-71
2024/03/21 09:12:54;;;;;;;1.27;0.95;;;29.40;17.50;;;;;;5071131;28;20067;-71
2024/03/21 09:15:21;;;;;;;3.22;1.58;;;30.10;17.30;;;;;;5070932;28;20074;-71
2024/03/21 09:17:47;;;;;;;2.85;2.28;;;30.60;16.40;;;;;;5072602;28;20041;-76
2024/03/21 09:20:13;;;;;;;1.50;1.00;;;31.00;16.20;;;;;;5071782;28;20443;-71
2024/03/21 09:22:39;;;;;;;2.33;1.40;;;31.60;15.50;;;;;;5072365;28;20041;-71
2024/03/21 09:25:06;;;;;;;1.00;0.63;;;31.80;14.70;;;;;;5070817;28;20033;-71
2024/03/21 09:27:32;;;;;;;3.13;2.13;;;32.20;14.10;;;;;;5070992;28;20047;-75
2024/03/21 09:29:58;;;;;;;3.92;1.67;;;32.50;14.20;;;;;;5072047;28;20528;-71
2024/03/21 09:32:25;;;;;;;3.47;2.38;;;33.10;13.70;;;;;;5070162;28;20040;-71
2024/03/21 09:34:54;;;;;;;2.03;1.10;;;33.70;13.10;;;;;;5070759;28;20032;-74
2024/03/21 09:37:23;;;;;;;1.60;0.95;;;34.20;13.20;;;;;;5053990;28;20068;-71
2024/03/21 09:39:49;;;;;;;4.28;1.20;;;34.80;12.70;;;;;;5070601;28;20097;-72
2024/03/21 09:42:34;;;;;;;2.53;1.50;;;35.20;12.10;;;;;;5069851;28;20045;-71
2024/03/21 09:45:03;;;;;;;0.77;0.77;;;35.60;11.50;;;;;;5071731;28;20474;-75
2024/03/21 09:47:31;;;;;;;3.50;1.67;;;36.50;11.40;;;;;;5071715;28;20047;-71
2024/03/21 09:49:58;;;;;;;1.67;1.05;;;36.90;10.50;;;;;;5070458;28;20501;-75
2024/03/21 09:52:26;;;;;;;1.85;1.10;;;36.80;11.20;;;;;;5069930;28;20482;-75
2024/03/21 09:54:53;;;;;;;10.52;1.40;;;37.10;11.60;;;;;;5070227;28;20036;-72
2024/03/21 09:57:20;;;;;;;1.20;0.80;;;37.00;11.10;;;;;;5070814;28;20102;-71
2024/03/21 09:59:46;;;;;;;1.85;1.38;;;36.90;11.20;;;;;;5070486;28;20556;-75
2024/03/21 10:02:12;;;;;;;2.50;1.58;;;37.30;11.00;;;;;;5069809;28;20291;-75
2024/03/21 10:04:57;;;;;;;2.38;1.42;;;38.00;10.10;;;;;;5053492;28;20525;-75
2024/03/21 10:07:24;;;;;;;2.80;1.58;;;38.60;9.50;;;;;;5071006;28;20048;-76
2024/03/21 10:10:09;;;;;;;2.33;2.08;;;39.40;9.40;;;;;;5070499;28;20056;-71
2024/03/21 10:12:35;;;;;;;2.60;1.80;;;39.80;8.90;;;;;;5069877;28;20086;-71
2024/03/21 10:15:01;;;;;;;2.08;1.52;;;39.50;9.60;;;;;;5071128;28;20021;-75
2024/03/21 10:17:27;;;;;;;1.60;1.30;;;39.80;9.40;;;;;;5071627;28;20082;-71
2024/03/21 10:19:54;;;;;;;28.15;1.90;;;39.80;9.00;;;;;;5071269;28;20025;-72
2024/03/21 10:22:22;;;;;;;2.15;1.85;;;40.20;9.20;;;;;;5069565;28;19920;-71
2024/03/21 10:25:07;;;;;;;1.92;1.50;;;39.90;8.90;;;;;;5069940;28;20048;-75
2024/03/21 10:27:33;;;;;;;2.33;1.85;;;40.10;9.80;;;;;;5070148;28;20044;-71
2024/03/21 10:29:59;;;;;;;2.20;1.45;;;39.80;8.30;;;;;;5069910;28;20032;-71
2024/03/21 10:32:25;;;;;;;1.85;1.20;;;38.40;9.40;;;;;;5070572;28;20059;-71
2024/03/21 10:34:53;;;;;;;1.85;1.38;;;37.80;9.30;;;;;;5069753;28;20359;-71
2024/03/21 10:37:22;;;;;;;2.25;1.30;;;38.20;9.40;;;;;;5069916;28;20055;-75
2024/03/21 10:39:51;;;;;;;2.53;1.20;;;38.50;9.50;;;;;;5069730;28;20424;-75
2024/03/21 10:42:26;;;;;;;1.48;1.30;;;38.40;9.80;;;;;;5052306;28;20688;-71
2024/03/21 10:44:56;;;;;;;1.90;1.55;;;38.80;9.70;;;;;;5069680;28;20028;-71
2024/03/21 10:47:24;;;;;;;1.10;0.93;;;39.00;10.20;;;;;;5069696;28;20524;-71
2024/03/21 10:49:50;;;;;;;2.45;1.40;;;38.90;9.40;;;;;;5069567;28;20048;-75
2024/03/21 10:52:17;;;;;;;1.20;0.77;;;39.30;9.90;;;;;;5069077;28;20042;-75
2024/03/21 10:54:50;;;;;;;1.95;1.10;;;39.40;9.50;;;;;;5069487;28;20042;-74
2024/03/21 10:57:18;;;;;;;2.40;1.33;;;38.70;9.40;;;;;;5069189;28;20072;-70
2024/03/21 10:59:57;;;;;;;2.22;1.45;;;38.60;9.50;;;;;;5070798;28;20021;-71
2024/03/21 11:02:28;;;;;;;2.60;1.27;;;38.00;10.30;;;;;;5068914;28;20551;-75
2024/03/21 11:04:55;;;;;;;10.27;7.05;;;38.20;11.00;;;;;;5069462;28;20032;-75
2024/03/21 11:07:22;;;;;;;12.65;11.02;;;38.80;10.10;;;;;;5069369;28;20036;-72
2024/03/21 11:09:50;;;;;;;7.32;5.53;;;39.10;10.10;;;;;;5072264;28;20105;-74
2024/03/21 11:12:16;;;;;;;2.25;1.70;;;39.90;9.30;;;;;;5072979;28;20493;-71
2024/03/21 11:14:45;;;;;;;1.73;1.17;;;39.90;9.60;;;;;;5074863;28;20501;-71
2024/03/21 11:17:30;;;;;;;1.30;0.80;;;40.20;9.40;;;;;;5074800;28;20362;-75
2024/03/21 11:20:01;;;;;;;2.40;1.65;;;39.70;8.40;;;;;;5073597;28;20039;-71
2024/03/21 11:22:27;;;;;;;2.80;1.58;;;38.90;9.40;;;;;;5072774;28;20040;-74
2024/03/21 11:24:53;;;;;;;2.20;1.27;;;38.70;9.20;;;;;;5074332;28;20439;-75
2024/03/21 11:27:19;;;;;;;1.48;1.20;;;38.40;9.90;;;;;;5073223;28;20385;-71
2024/03/21 11:29:46;;;;;;;2.08;1.13;;;38.70;9.40;;;;;;5073371;28;20028;-72
2024/03/21 11:32:20;;;;;;;3.33;1.35;;;39.80;9.20;;;;;;5055915;28;20033;-74
2024/03/21 11:34:47;;;;;;;0.65;0.65;;;40.50;8.50;;;;;;5073182;28;20265;-75
2024/03/21 11:37:15;;;;;;;1.40;1.30;;;41.00;9.10;;;;;;5073105;28;20686;-74
2024/03/21 11:39:41;;;;;;;1.83;1.33;;;41.10;8.90;;;;;;5074152;28;20040;-71
2024/03/21 11:42:31;;;;;;;3.63;1.25;;;42.00;8.30;;;;;;5072316;28;20118;-75
2024/03/21 11:44:57;;;;;;;1.10;0.85;;;43.10;7.20;;;;;;5074009;28;20505;-71
2024/03/21 11:47:23;;;;;;;2.83;1.40;;;44.30;6.90;;;;;;5072800;28;20054;-75
2024/03/21 11:49:50;;;;;;;1.00;0.88;;;44.50;6.60;;;;;;5074029;28;20036;-75
2024/03/21 11:52:18;;;;;;;1.98;1.45;;;44.30;7.00;;;;;;5072129;28;20032;-71
2024/03/21 11:54:45;;;;;;;3.38;1.42;;;44.10;7.00;;;;;;5072620;28;20044;-71
2024/03/21 11:57:14;;;;;;;1.20;1.00;;;44.10;6.70;;;;;;5055498;28;20135;-71
2024/03/21 11:59:41;;;;;;;2.25;1.30;;;44.80;6.70;;;;;;5072725;28;20102;-75
2024/03/21 12:02:26;;;;;;;2.05;0.77;;;42.70;6.70;;;;;;5055547;28;20032;-71
2024/03/21 12:04:57;;;;;;;1.67;1.27;;;42.20;8.00;;;;;;5073706;28;20199;-71
2024/03/21 12:07:23;;;;;;;5.18;1.50;;;43.80;7.00;;;;;;5072449;28;20064;-72
2024/03/21 12:09:49;;;;;;;1.58;1.17;;;44.10;7.40;;;;;;5073923;28;20035;-72
2024/03/21 12:12:17;;;;;;;1.42;1.02;;;45.20;7.40;;;;;;5071776;28;20036;-71
2024/03/21 12:14:43;;;;;;;1.95;1.52;;;46.00;6.60;;;;;;5073481;28;20029;-71
2024/03/21 12:17:13;;;;;;;1.75;1.23;;;46.40;6.80;;;;;;5072044;28;20060;-71
2024/03/21 12:19:39;;;;;;;1.85;1.13;;;46.80;6.00;;;;;;5073071;28;20116;-75
2024/03/21 12:22:12;;;;;;;2.20;1.77;;;47.20;6.70;;;;;;5071581;28;20072;-75
2024/03/21 12:24:57;;;;;;;2.05;1.70;;;47.30;6.60;;;;;;5071950;28;20489;-71
2024/03/21 12:27:24;;;;;;;1.75;1.33;;;46.80;6.60;;;;;;5073783;28;20125;-74
2024/03/21 12:29:50;;;;;;;2.00;1.58;;;46.50;6.80;;;;;;5072090;28;20028;-75
2024/03/21 12:32:16;;;;;;;1.52;1.10;;;46.90;6.70;;;;;;5073002;28;20036;-75
2024/03/21 12:34:42;;;;;;;1.38;1.20;;;46.20;7.00;;;;;;5071832;28;20032;-71
2024/03/21 12:37:28;;;;;;;2.13;1.45;;;43.80;8.00;;;;;;5073243;28;20064;-71
2024/03/21 12:39:55;;;;;;;1.77;1.60;;;43.90;8.00;;;;;;5073271;28;20032;-75
2024/03/21 12:42:21;;;;;;;1.95;1.42;;;43.10;8.40;;;;;;5072608;28;20366;-75
2024/03/21 12:44:48;;;;;;;2.97;1.23;;;42.90;8.60;;;;;;5071631;28;20033;-71
2024/03/21 12:47:16;;;;;;;1.83;1.25;;;42.50;8.80;;;;;;5071654;28;20032;-71
2024/03/21 12:49:42;;;;;;;1.65;1.27;;;41.50;9.30;;;;;;5071644;28;20078;-71
2024/03/21 12:52:12;;;;;;;2.03;1.15;;;40.30;10.00;;;;;;5070957;28;20044;-71
2024/03/21 12:54:38;;;;;;;1.77;1.20;;;39.20;10.00;;;;;;5071364;28;20032;-75
2024/03/21 12:57:05;;;;;;;2.38;1.98;;;39.70;10.40;;;;;;5071178;28;20037;-75
2024/03/21 12:59:31;;;;;;;3.03;1.55;;;41.90;9.10;;;;;;5072873;28;20037;-71
2024/03/21 13:01:57;;;;;;;1.33;1.10;;;44.00;8.10;;;;;;5070759;28;20032;-75
2024/03/21 13:04:23;;;;;;;2.83;1.75;;;45.90;6.70;;;;;;5072489;28;20040;-71
2024/03/21 13:06:49;;;;;;;2.72;1.58;;;46.70;6.60;;;;;;5054634;28;20072;-71
2024/03/21 13:09:15;;;;;;;4.15;1.80;;;46.10;7.30;;;;;;5071047;28;20090;-71
2024/03/21 13:11:41;;;;;;;1.40;1.30;;;45.60;7.40;;;;;;5070756;28;20428;-71
2024/03/21 13:14:07;;;;;;;1.83;1.50;;;44.80;7.60;;;;;;5054142;28;20028;-71
2024/03/21 13:16:33;;;;;;;1.38;1.17;;;44.70;7.90;;;;;;5072570;28;20041;-71
2024/03/21 13:18:59;;;;;;;1.52;1.13;;;45.70;7.20;;;;;;5072166;28;20047;-75
2024/03/21 13:21:25;;;;;;;1.13;1.02;;;46.70;6.80;;;;;;5071850;28;20037;-75
2024/03/21 13:23:51;;;;;;;2.97;1.92;;;47.60;6.80;;;;;;5072192;28;20040;-75
2024/03/21 13:26:17;;;;;;;5.60;2.35;;;48.10;6.10;;;;;;5070684;28;20017;-75
2024/03/21 13:28:43;;;;;;;5.25;1.45;;;48.40;5.80;;;;;;5070843;28;20397;-71
2024/03/21 13:31:10;;;;;;;1.67;1.45;;;48.90;5.50;;;;;;5070958;28;20041;-71
2024/03/21 13:33:36;;;;;;;2.28;1.92;;;49.40;5.80;;;;;;5070872;28;20052;-75
2024/03/21 13:36:02;;;;;;;1.73;1.50;;;49.70;5.50;;;;;;5072252;28;20118;-71
2024/03/21 13:38:29;;;;;;;1.48;1.17;;;49.90;5.00;;;;;;5072117;28;20039;-73
2024/03/21 13:40:57;;;;;;;3.08;1.65;;;50.20;4.90;;;;;;5071453;28;20068;-71
2024/03/21 13:43:27;;;;;;;1.98;1.60;;;50.10;4.80;;;;;;5070732;28;20035;-75